WetterOnline ( https://www.wetteronline.de )

Wetter aktuell Lößnitz

Aktuelles Wetter: Carlsfeld (899m)

6-stündlich | Neueste Meldungen
Ortszeit Temperatur Wetter
Fr, 24.05. 20:00 12.1° C wolkig
Fr, 24.05. 14:00 13.1° C Nebel
Fr, 24.05. 8:00 12.6° C bedeckt
Fr, 24.05. 2:00 9.3° C wolkenlos
Do, 23.05. 20:00 14.0° C bedeckt
Do, 23.05. 14:00 15.4° C bewölkt
Do, 23.05. 8:00 10.5° C wolkenlos
Do, 23.05. 2:00 9.5° C wolkig
Ortszeit Temperatur Wetter
Sa, 25.05. 0:00 9.8° C Nebel
Fr, 24.05. 23:50 9.8° C bewölkt
Fr, 24.05. 23:40 9.8° C Dunst
Fr, 24.05. 23:30 10.1° C wolkig
Fr, 24.05. 23:20 10.1° C wolkig
Fr, 24.05. 23:10 10.1° C wolkig
Fr, 24.05. 23:00 10.1° C Nebel
Fr, 24.05. 22:30 10.0° C Nebel
Fr, 24.05. 22:00 9.5° C Nebel
Fr, 24.05. 21:30 10.2° C Nebel
Fr, 24.05. 21:00 10.8° C wolkig
Ortszeit Relative Feuchte Sichtweite
Fr, 24.05. 20:00 90% 50 km
Fr, 24.05. 14:00 88% 45 km
Fr, 24.05. 8:00 80% 50 km
Fr, 24.05. 2:00 88% 40 km
Do, 23.05. 20:00 72% 60 km
Do, 23.05. 14:00 57% 65 km
Do, 23.05. 8:00 90% 27 km
Do, 23.05. 2:00 95% 20 km
Ortszeit Relative Feuchte Sichtweite
Sa, 25.05. 0:00 97% 14 km
Fr, 24.05. 23:50 97% -
Fr, 24.05. 23:40 98% -
Fr, 24.05. 23:30 97% 23 km
Fr, 24.05. 23:20 97% -
Fr, 24.05. 23:10 96% -
Fr, 24.05. 23:00 95% 35 km
Fr, 24.05. 22:30 97% 23 km
Fr, 24.05. 22:00 95% 4.8 km
Fr, 24.05. 21:30 95% 9 km
Fr, 24.05. 21:00 94% 29 km
Ortszeit Niederschlagsmenge Niederschlagsart
Fr, 24.05. 20:00 10 l/m2 in 12 Std. Regen
Fr, 24.05. 14:00 8 l/m2 in 6 Std. Regen
Fr, 24.05. 8:00 0.0 l/m2 in 12 Std. -
Fr, 24.05. 2:00 0.0 l/m2 in 6 Std. -
Do, 23.05. 20:00 0.0 l/m2 in 12 Std. -
Do, 23.05. 14:00 0.0 l/m2 in 6 Std. -
Do, 23.05. 8:00 5 l/m2 in 12 Std. -
Do, 23.05. 2:00 5 l/m2 in 6 Std. Regen
Ortszeit Niederschlagsmenge Niederschlagsart
Sa, 25.05. 0:00 0.0 l/m2 in 1 Std. -
Fr, 24.05. 23:50 keine Meldung -
Fr, 24.05. 23:40 keine Meldung -
Fr, 24.05. 23:30 0.0 l/m2 in 30 Min -
Fr, 24.05. 23:20 keine Meldung -
Fr, 24.05. 23:10 keine Meldung -
Fr, 24.05. 23:00 0.0 l/m2 in 1 Std. -
Fr, 24.05. 22:30 0.0 l/m2 in 30 Min -
Fr, 24.05. 22:00 0.0 l/m2 in 1 Std. -
Fr, 24.05. 21:30 0.0 l/m2 in 30 Min -
Fr, 24.05. 21:00 0.0 l/m2 in 1 Std. -
Ortszeit Stärke Spitze Richtung
km/h Bft. km/h Grad Sektor
Fr, 24.05. 20:00 4 1 22 160° S
Fr, 24.05. 14:00 11 2 32 160° S
Fr, 24.05. 8:00 2 1 15 90° O
Fr, 24.05. 2:00 7 2 13 150° SO
Do, 23.05. 20:00 7 2 25 70° O
Do, 23.05. 14:00 7 2 22 310° NW
Do, 23.05. 8:00 6 1 19 310° NW
Do, 23.05. 2:00 6 1 20 290° W
Ortszeit Stärke Spitze Richtung
km/h Bft. km/h Grad Sektor
Sa, 25.05. 0:00 6 1 17 190° S
Fr, 24.05. 23:50 6 1 - 190° S
Fr, 24.05. 23:40 6 1 - 200° S
Fr, 24.05. 23:30 7 2 14 190° S
Fr, 24.05. 23:20 7 2 - 190° S
Fr, 24.05. 23:10 7 2 - 190° S
Fr, 24.05. 23:00 7 2 14 200° S
Fr, 24.05. 22:30 7 2 14 210° SW
Fr, 24.05. 22:00 4 1 7 220° SW
Fr, 24.05. 21:30 4 1 7 160° S
Fr, 24.05. 21:00 4 1 7 130° SO
Ortszeit Untergrenze Bedeckung Gattung
total tief tief mittel hoch
Fr, 24.05. 20:00 420 m 7/8 4/8 - - -
Fr, 24.05. 14:00 300 m 8/8 1/8 - - -
Fr, 24.05. 8:00 2700 m 8/8 8/8 - - -
Fr, 24.05. 2:00 - 0/8 0/8 - - -
Do, 23.05. 20:00 1230 m 8/8 8/8 - - -
Do, 23.05. 14:00 1470 m 7/8 7/8 - - -
Do, 23.05. 8:00 - 0/8 0/8 - - -
Do, 23.05. 2:00 420 m 6/8 6/8 - - -
Ortszeit Bedeckungsgrad in Achtel und Wolkenuntergrenze
Sa, 25.05. 0:00 6(30m) 8(6600m)
Fr, 24.05. 23:50 6(30m) 8(6600m)
Fr, 24.05. 23:40 7
Fr, 24.05. 23:30 5(6900m)
Fr, 24.05. 23:20 5(6900m)
Fr, 24.05. 23:10 6
Fr, 24.05. 23:00 keine Wolken
Fr, 24.05. 22:30 keine Wolken
Fr, 24.05. 22:00 3(6900m)
Fr, 24.05. 21:30 1(<30m)
Fr, 24.05. 21:00 3(6000m) 7(7800m)
Ortszeit Stationsdruck (hPa) Tendenz (hPa in 3 Std.)
Fr, 24.05. 20:00 914 - 0,3
Fr, 24.05. 14:00 915 - 0,1
Fr, 24.05. 8:00 915 - 0,1
Fr, 24.05. 2:00 915 - 0,1
Do, 23.05. 20:00 914 + 0,4
Do, 23.05. 14:00 914 + 0,2
Do, 23.05. 8:00 913 + 1,2
Do, 23.05. 2:00 911 - 0,2
Ortszeit Stationsdruck (hPa) Tendenz (hPa in 3 Std.)
Sa, 25.05. 0:00 915 + 0,4
Fr, 24.05. 23:50 915 keine Meldung
Fr, 24.05. 23:40 915 keine Meldung
Fr, 24.05. 23:30 915 + 0,5
Fr, 24.05. 23:20 915 keine Meldung
Fr, 24.05. 23:10 915 keine Meldung
Fr, 24.05. 23:00 915 + 0,4
Fr, 24.05. 22:30 915 + 0,3
Fr, 24.05. 22:00 915 + 0,1
Fr, 24.05. 21:30 914 - 0,1
Fr, 24.05. 21:00 914 - 0,2
Ortszeit Schneehöhe (cm)
Fr, 24.05. 20:00 0
Fr, 24.05. 14:00 0
Fr, 24.05. 8:00 0
Fr, 24.05. 2:00 0
Do, 23.05. 20:00 0
Do, 23.05. 14:00 0
Do, 23.05. 8:00 0
Do, 23.05. 2:00 0
Ortszeit Schneehöhe (cm)
Sa, 25.05. 0:00 0
Fr, 24.05. 23:50 0
Fr, 24.05. 23:40 -
Fr, 24.05. 23:30 0
Fr, 24.05. 23:20 0
Fr, 24.05. 23:10 -
Fr, 24.05. 23:00 0
Fr, 24.05. 22:30 0
Fr, 24.05. 22:00 0
Fr, 24.05. 21:30 0
Fr, 24.05. 21:00 0
Link zu dieser Seite / Seite empfehlen

Das Wetter in ...